Seward, AK

1:04 PM AKST on February 10, 2016 (GMT -0900)
Oak Street Forest Acres Seward Alaska | | Change Station
CLOSE
Current Station
Personal Weather Station
Location: Seward, AK
Elevation: 144 ft
Nearby Weather Stations

Elev 144 ft 60.14 °N, 149.44 °W | Updated 49 seconds ago

Overcast
Overcast
40.9 °F
Feels Like 38 °F
N
5.0
Wind Variable Wind from South

Today
High -- | Low -- °F
--% Chance of Precip.
Yesterday
High -- | Low -- °F
Precip. -- in
Pressure 29.51 in
Visibility 10.0 miles
Clouds Overcast 6000 ft
Windchill 38 °F
Dew Point 34 °F
Humidity 77%
Rainfall 0.00 in
Snow Depth Not available.
8:50 AM 5:34 PM
Waxing Crescent, 7% visible
METAR PAWD 102153Z AUTO 18003KT 10SM OVC060 06/02 A2950 RMK AO2 SLP991 T00560017 TSNO
Pressure 29.51 in
Visibility 10.0 miles
Clouds Overcast 6000 ft
Windchill 38 °F
Dew Point 34 °F
Humidity 77%
Rainfall 0.00 in
Snow Depth Not available.
8:50 AM 5:34 PM
Waxing Crescent, 7% visible
METAR PAWD 102153Z AUTO 18003KT 10SM OVC060 06/02 A2950 RMK AO2 SLP991 T00560017 TSNO

10-Day Weather Forecast

Almanac

Astronomy

Feb. 10, 2016 Rise Set
Actual Time
Civil Twilight
Nautical Twilight
Astronomical Twilight
Moon
Length of Visible Light
Length of Day
Tomorrow will be .
, % of the Moon is Illuminated

Today's Extremes

State Highs State Lows

Community

WunderPhotos

Upload Photos

1,891,959 photos uploaded!

WunderBlog® & News

Nearby

Air Quality

  Air Quality AQ Index Pollutant
Not available.

Snow Depth

Station Depth Elevation

Earthquake Activity

City Distance Mag. Time & Date
Minimum magnitude displayed is 2.5.

Coastal Water Temperatures

Place Temperature

Stations

Nearby Weather Stations

Station Location Temp. Windchill Dew Point Humidity Wind Precip. Elev Updated Type
                   

Watches & Warnings

There are currently no watches in effect.